createdAt,value
2022-07-29T00:02:09.854Z,15.10
2022-07-29T00:04:58.570Z,14.90
2022-07-29T00:07:47.278Z,14.80
2022-07-29T00:10:36.147Z,14.70
2022-07-29T00:13:32.611Z,14.80
2022-07-29T00:16:24.215Z,14.70
2022-07-29T00:19:12.924Z,14.80
2022-07-29T00:22:01.644Z,15.00
2022-07-29T00:24:50.870Z,15.20
2022-07-29T00:27:39.635Z,15.50
2022-07-29T00:30:29.309Z,15.60
2022-07-29T00:33:19.442Z,15.60
2022-07-29T00:36:07.356Z,15.70
2022-07-29T00:38:56.053Z,15.80
2022-07-29T00:41:44.792Z,15.80
2022-07-29T00:44:37.984Z,15.80
2022-07-29T00:47:26.720Z,15.90
2022-07-29T00:50:16.967Z,15.90
2022-07-29T00:53:07.678Z,16.10
2022-07-29T00:55:56.775Z,16.10
2022-07-29T00:58:45.991Z,16.10
2022-07-29T01:01:35.195Z,16.10
2022-07-29T01:04:24.186Z,16.20
2022-07-29T01:07:15.091Z,16.30
2022-07-29T01:10:05.305Z,16.30
2022-07-29T01:12:56.964Z,16.30
2022-07-29T01:15:49.877Z,16.20
2022-07-29T01:18:44.239Z,16.30
2022-07-29T01:21:53.760Z,16.40
2022-07-29T01:25:19.908Z,16.60
2022-07-29T01:28:43.891Z,16.70
2022-07-29T01:31:54.574Z,16.70
2022-07-29T01:34:54.476Z,16.60
2022-07-29T01:37:49.402Z,16.70
2022-07-29T01:40:43.099Z,16.70
2022-07-29T01:43:38.553Z,16.60
2022-07-29T01:46:33.012Z,16.60
2022-07-29T01:49:27.973Z,16.50
2022-07-29T01:52:24.115Z,16.50
2022-07-29T01:55:17.175Z,16.50
2022-07-29T01:58:07.940Z,16.50
2022-07-29T02:00:58.178Z,16.50
2022-07-29T02:03:48.488Z,16.50
2022-07-29T02:06:40.944Z,16.50
2022-07-29T02:09:32.381Z,16.60
2022-07-29T02:12:23.298Z,16.60
2022-07-29T02:15:13.485Z,16.60
2022-07-29T02:18:08.823Z,16.80
2022-07-29T02:21:01.054Z,16.90
2022-07-29T02:23:52.201Z,16.90
2022-07-29T02:26:44.107Z,16.90
2022-07-29T02:29:34.814Z,16.90
2022-07-29T02:32:24.886Z,16.80
2022-07-29T02:35:16.758Z,16.70
2022-07-29T02:38:23.687Z,16.60
2022-07-29T02:41:15.723Z,16.50
2022-07-29T02:44:08.602Z,16.40
2022-07-29T02:47:04.627Z,16.30
2022-07-29T02:50:00.648Z,16.20
2022-07-29T02:52:54.963Z,16.20
2022-07-29T02:55:51.001Z,16.20
2022-07-29T02:58:45.211Z,16.10
2022-07-29T03:01:37.261Z,16.00
2022-07-29T03:04:29.519Z,16.00
2022-07-29T03:07:21.660Z,15.90
2022-07-29T03:10:13.422Z,15.90
2022-07-29T03:13:03.226Z,15.90
2022-07-29T03:15:54.342Z,15.80
2022-07-29T03:18:43.447Z,15.90
2022-07-29T03:21:32.535Z,15.90
2022-07-29T03:24:30.577Z,15.90
2022-07-29T03:27:19.536Z,15.90
2022-07-29T03:30:09.669Z,15.80
2022-07-29T03:32:59.877Z,15.80
2022-07-29T03:35:48.788Z,15.80
2022-07-29T03:38:38.817Z,15.70
2022-07-29T03:41:28.352Z,15.70
2022-07-29T03:44:19.128Z,15.80
2022-07-29T03:47:10.287Z,15.80
2022-07-29T03:50:07.304Z,15.80
2022-07-29T03:52:59.897Z,15.80
2022-07-29T03:55:53.262Z,15.70
2022-07-29T03:58:42.435Z,15.70
2022-07-29T04:01:31.510Z,15.70
2022-07-29T04:04:20.468Z,15.60
2022-07-29T04:07:14.651Z,15.50
2022-07-29T04:10:03.325Z,15.50
2022-07-29T04:12:52.157Z,15.50
2022-07-29T04:15:40.867Z,15.50
2022-07-29T04:18:29.740Z,15.40
2022-07-29T04:21:18.447Z,15.30
2022-07-29T04:24:09.508Z,15.30
2022-07-29T04:26:58.250Z,15.20
2022-07-29T04:29:56.729Z,15.20
2022-07-29T04:32:46.153Z,15.20
2022-07-29T04:35:38.915Z,15.30
2022-07-29T04:38:38.560Z,15.30
2022-07-29T04:41:32.810Z,15.30
2022-07-29T04:44:22.299Z,15.30
2022-07-29T04:47:17.212Z,15.30
2022-07-29T04:50:08.270Z,15.30
2022-07-29T04:52:57.234Z,15.30
2022-07-29T04:55:46.398Z,15.30
2022-07-29T04:58:38.630Z,15.30
2022-07-29T05:01:27.394Z,15.40
2022-07-29T05:04:16.679Z,15.40
2022-07-29T05:07:05.587Z,15.40
2022-07-29T05:09:54.698Z,15.40
2022-07-29T05:12:43.418Z,15.50
2022-07-29T05:15:33.610Z,15.50
2022-07-29T05:18:22.466Z,15.50
2022-07-29T05:21:14.964Z,15.60
2022-07-29T05:24:03.865Z,15.60
2022-07-29T05:26:52.549Z,15.60
2022-07-29T05:29:44.588Z,15.70
2022-07-29T05:32:35.203Z,15.80
2022-07-29T05:35:24.009Z,15.90
2022-07-29T05:38:12.742Z,16.00
2022-07-29T05:41:01.699Z,16.10
2022-07-29T05:43:50.413Z,16.20
2022-07-29T05:46:39.155Z,16.40
2022-07-29T05:49:29.557Z,16.50
2022-07-29T05:52:18.510Z,16.70
2022-07-29T05:55:07.784Z,16.90
2022-07-29T05:57:56.434Z,17.00
2022-07-29T06:00:45.251Z,17.10
2022-07-29T06:03:33.960Z,17.00
2022-07-29T06:06:24.051Z,16.90
2022-07-29T06:09:13.833Z,16.80
2022-07-29T06:12:03.267Z,16.90
2022-07-29T06:14:54.285Z,17.00
2022-07-29T06:17:59.907Z,17.20
2022-07-29T06:20:49.747Z,17.30
2022-07-29T06:23:40.613Z,17.40
2022-07-29T06:26:30.966Z,17.60
2022-07-29T06:29:20.726Z,17.80
2022-07-29T06:32:10.223Z,18.10
2022-07-29T06:35:17.754Z,18.20
2022-07-29T06:38:25.124Z,18.40
2022-07-29T06:41:18.205Z,18.70
2022-07-29T06:44:06.977Z,18.90
2022-07-29T06:46:55.865Z,19.00
2022-07-29T06:49:44.637Z,18.90
2022-07-29T06:52:33.324Z,18.90
2022-07-29T06:55:25.277Z,19.00
2022-07-29T06:58:17.094Z,18.90
2022-07-29T07:01:07.002Z,18.90
2022-07-29T07:03:55.754Z,19.00
2022-07-29T07:06:44.420Z,19.00
2022-07-29T07:09:40.111Z,19.00
2022-07-29T07:12:29.442Z,19.10
2022-07-29T07:15:22.840Z,19.20
2022-07-29T07:18:27.568Z,19.30
2022-07-29T07:21:19.343Z,19.60
2022-07-29T07:24:08.954Z,19.90
2022-07-29T07:26:57.627Z,20.00
2022-07-29T07:29:46.303Z,20.10
2022-07-29T07:32:36.403Z,20.00
2022-07-29T07:35:25.329Z,19.90
2022-07-29T07:38:14.057Z,19.90
2022-07-29T07:41:03.384Z,19.90
2022-07-29T07:43:52.234Z,19.90
2022-07-29T07:46:41.201Z,19.90
2022-07-29T07:49:32.328Z,20.00
2022-07-29T07:52:23.273Z,19.90
2022-07-29T07:55:12.032Z,20.00
2022-07-29T07:58:00.769Z,20.20
2022-07-29T08:00:49.989Z,20.40
2022-07-29T08:03:39.160Z,20.40
2022-07-29T08:06:29.246Z,20.20
2022-07-29T08:09:28.797Z,20.10
2022-07-29T08:12:18.435Z,20.20
2022-07-29T08:15:08.823Z,20.30
2022-07-29T08:17:57.509Z,20.50
2022-07-29T08:20:46.214Z,20.60
2022-07-29T08:23:46.191Z,20.70
2022-07-29T08:26:37.498Z,20.80
2022-07-29T08:29:26.282Z,20.80
2022-07-29T08:32:26.285Z,20.90
2022-07-29T08:35:25.117Z,21.10
2022-07-29T08:38:13.807Z,21.20
2022-07-29T08:41:04.552Z,21.60
2022-07-29T08:43:53.502Z,21.90
2022-07-29T08:46:42.208Z,21.90
2022-07-29T08:49:30.916Z,21.70
2022-07-29T08:52:20.353Z,21.90
2022-07-29T08:55:10.718Z,22.10
2022-07-29T08:58:02.440Z,22.10
2022-07-29T09:00:53.716Z,22.10
2022-07-29T09:03:45.748Z,21.90
2022-07-29T09:06:39.073Z,21.90
2022-07-29T09:09:28.031Z,22.00
2022-07-29T09:12:29.396Z,22.00
2022-07-29T09:15:20.167Z,22.00
2022-07-29T09:18:20.473Z,22.00
2022-07-29T09:21:37.008Z,22.00
2022-07-29T09:24:29.096Z,22.00
2022-07-29T09:27:23.243Z,22.00
2022-07-29T09:30:13.399Z,22.10
2022-07-29T09:33:04.998Z,22.10
2022-07-29T09:36:02.562Z,22.20
2022-07-29T09:39:01.162Z,22.30
2022-07-29T09:41:51.447Z,22.50
2022-07-29T09:44:45.075Z,22.70
2022-07-29T09:47:46.066Z,23.10
2022-07-29T09:50:40.955Z,23.60
2022-07-29T09:53:34.156Z,23.90
2022-07-29T09:56:24.573Z,23.90
2022-07-29T09:59:13.414Z,24.00
2022-07-29T10:02:02.551Z,24.10
2022-07-29T10:04:51.514Z,24.00
2022-07-29T10:07:54.101Z,23.80
2022-07-29T10:10:44.931Z,23.80
2022-07-29T10:13:33.702Z,24.00
2022-07-29T10:16:22.663Z,24.10
2022-07-29T10:19:11.710Z,24.40
2022-07-29T10:22:01.232Z,24.50
2022-07-29T10:24:51.632Z,24.30
2022-07-29T10:27:40.821Z,24.10
2022-07-29T10:30:29.724Z,24.00
2022-07-29T10:33:38.816Z,23.90
2022-07-29T10:36:43.400Z,24.00
2022-07-29T10:39:49.888Z,24.10
2022-07-29T10:42:43.678Z,24.20
2022-07-29T10:45:34.672Z,24.20
2022-07-29T10:48:24.029Z,24.30
2022-07-29T10:51:13.241Z,24.30
2022-07-29T10:54:06.073Z,24.30
2022-07-29T10:56:56.114Z,24.30
2022-07-29T10:59:47.398Z,24.30
2022-07-29T11:02:50.228Z,24.30
2022-07-29T11:05:59.399Z,24.30
2022-07-29T11:09:20.311Z,24.30
2022-07-29T11:12:48.429Z,24.30
2022-07-29T11:15:56.626Z,24.30
2022-07-29T11:19:29.950Z,24.20
2022-07-29T11:22:35.340Z,24.20
2022-07-29T11:25:42.867Z,24.50
2022-07-29T11:28:34.918Z,24.80
2022-07-29T11:31:39.709Z,25.00
2022-07-29T11:34:30.699Z,25.20
2022-07-29T11:37:27.956Z,25.30
2022-07-29T11:40:21.330Z,25.40
2022-07-29T11:43:10.212Z,25.30
2022-07-29T11:46:04.122Z,25.30
2022-07-29T11:48:54.528Z,25.40
2022-07-29T11:51:56.899Z,25.60
2022-07-29T11:54:58.402Z,25.80
2022-07-29T11:58:03.961Z,25.90
2022-07-29T12:00:55.279Z,25.90
2022-07-29T12:03:44.875Z,25.70
2022-07-29T12:06:35.295Z,25.50
2022-07-29T12:09:25.621Z,25.70
2022-07-29T12:12:18.721Z,26.00
2022-07-29T12:15:21.050Z,26.10
2022-07-29T12:18:18.898Z,26.40
2022-07-29T12:21:09.296Z,26.70
2022-07-29T12:24:08.973Z,26.70
2022-07-29T12:27:02.472Z,26.60
2022-07-29T12:29:58.886Z,27.10
2022-07-29T12:32:49.705Z,27.50
2022-07-29T12:35:38.547Z,27.50
2022-07-29T12:38:27.818Z,27.00
2022-07-29T12:41:18.280Z,26.60
2022-07-29T12:44:07.243Z,26.60
2022-07-29T12:47:04.849Z,26.50
2022-07-29T12:50:09.273Z,26.20
2022-07-29T12:53:11.279Z,26.00
2022-07-29T12:56:08.055Z,25.90
2022-07-29T12:59:16.225Z,25.90
2022-07-29T13:02:05.168Z,25.80
2022-07-29T13:04:59.033Z,25.70
2022-07-29T13:07:55.254Z,25.60
2022-07-29T13:10:46.487Z,25.80
2022-07-29T13:13:35.181Z,26.00
2022-07-29T13:16:25.395Z,26.20
2022-07-29T13:19:16.234Z,26.20
2022-07-29T13:22:05.605Z,26.10
2022-07-29T13:24:55.702Z,25.90
2022-07-29T13:27:46.807Z,25.70
2022-07-29T13:30:35.960Z,25.60
2022-07-29T13:33:34.917Z,25.60
2022-07-29T13:36:23.622Z,25.80
2022-07-29T13:39:12.384Z,25.90
2022-07-29T13:42:01.619Z,26.10
2022-07-29T13:44:52.698Z,26.00
2022-07-29T13:47:45.974Z,26.00
2022-07-29T13:50:39.480Z,25.80
2022-07-29T13:53:28.914Z,25.70
2022-07-29T13:56:17.638Z,25.00
2022-07-29T13:59:06.338Z,24.30
2022-07-29T14:01:55.277Z,24.00
2022-07-29T14:04:44.379Z,23.90
2022-07-29T14:07:34.652Z,23.40
2022-07-29T14:10:23.487Z,23.20
2022-07-29T14:13:24.326Z,23.20
2022-07-29T14:16:14.473Z,23.30
2022-07-29T14:19:03.324Z,23.40
2022-07-29T14:21:52.050Z,23.30
2022-07-29T14:24:42.144Z,23.40
2022-07-29T14:27:37.570Z,23.50
2022-07-29T14:30:26.858Z,23.80
2022-07-29T14:33:15.574Z,24.10
2022-07-29T14:36:04.514Z,24.30
2022-07-29T14:38:53.197Z,24.50
2022-07-29T14:41:43.488Z,24.60
2022-07-29T14:44:33.114Z,24.60
2022-07-29T14:47:22.924Z,24.60
2022-07-29T14:50:11.961Z,24.50
2022-07-29T14:53:00.669Z,24.50
2022-07-29T14:55:49.385Z,24.50
2022-07-29T14:58:39.631Z,24.50
2022-07-29T15:01:40.615Z,24.40
2022-07-29T15:04:29.418Z,24.40
2022-07-29T15:07:18.273Z,24.60
2022-07-29T15:10:07.587Z,24.90
2022-07-29T15:12:57.189Z,25.00
2022-07-29T15:15:47.461Z,25.10
2022-07-29T15:18:36.381Z,25.10
2022-07-29T15:21:25.067Z,25.20
2022-07-29T15:24:13.860Z,25.40
2022-07-29T15:27:02.562Z,25.50
2022-07-29T15:29:51.226Z,25.50
2022-07-29T15:32:41.358Z,25.30
2022-07-29T15:35:30.121Z,25.10
2022-07-29T15:38:19.239Z,24.80
2022-07-29T15:41:08.070Z,24.50
2022-07-29T15:43:56.773Z,24.30
2022-07-29T15:47:03.103Z,24.20
2022-07-29T15:49:53.137Z,24.10
2022-07-29T15:52:41.920Z,24.00
2022-07-29T15:55:30.603Z,23.90
2022-07-29T15:58:19.304Z,23.80
2022-07-29T16:01:08.052Z,23.10
2022-07-29T16:03:57.110Z,22.20
2022-07-29T16:06:49.111Z,21.40
2022-07-29T16:09:37.953Z,20.70
2022-07-29T16:12:27.230Z,20.30
2022-07-29T16:15:15.951Z,20.00
2022-07-29T16:18:04.979Z,19.80
2022-07-29T16:20:53.684Z,19.60
2022-07-29T16:23:43.817Z,19.50
2022-07-29T16:26:34.400Z,19.40
2022-07-29T16:29:23.101Z,19.40
2022-07-29T16:32:11.885Z,19.40
2022-07-29T16:35:02.403Z,19.30
2022-07-29T16:37:51.238Z,19.20
2022-07-29T16:40:41.315Z,19.30
2022-07-29T16:43:30.030Z,19.40
2022-07-29T16:46:19.367Z,19.50
2022-07-29T16:49:08.871Z,19.60
2022-07-29T16:51:57.571Z,19.80
2022-07-29T16:54:47.594Z,19.90
2022-07-29T16:57:37.671Z,20.00
2022-07-29T17:00:26.375Z,20.00
2022-07-29T17:03:15.070Z,20.00
2022-07-29T17:06:03.712Z,20.00
2022-07-29T17:08:52.427Z,20.10
2022-07-29T17:11:53.654Z,20.20
2022-07-29T17:14:44.750Z,20.30
2022-07-29T17:17:38.893Z,20.30
2022-07-29T17:20:43.252Z,20.30
2022-07-29T17:23:31.969Z,20.40
2022-07-29T17:26:21.829Z,20.40
2022-07-29T17:29:10.910Z,20.40
2022-07-29T17:32:01.105Z,20.50
2022-07-29T17:34:49.829Z,20.50
2022-07-29T17:37:38.559Z,20.60
2022-07-29T17:40:27.281Z,20.60
2022-07-29T17:43:15.985Z,20.50
2022-07-29T17:46:04.674Z,20.50
2022-07-29T17:48:55.810Z,20.40
2022-07-29T17:51:44.642Z,20.40
2022-07-29T17:54:33.522Z,20.40
2022-07-29T17:57:22.289Z,20.30
2022-07-29T18:00:11.481Z,20.30
2022-07-29T18:03:00.229Z,20.30
2022-07-29T18:05:50.693Z,20.40
2022-07-29T18:08:40.337Z,20.40
2022-07-29T18:11:30.512Z,20.40
2022-07-29T18:14:19.326Z,20.40
2022-07-29T18:17:08.690Z,20.40
2022-07-29T18:19:57.400Z,20.40
2022-07-29T18:22:47.703Z,20.50
2022-07-29T18:25:36.670Z,20.50
2022-07-29T18:28:25.650Z,20.40
2022-07-29T18:31:14.815Z,20.40
2022-07-29T18:34:03.589Z,20.30
2022-07-29T18:36:52.651Z,20.30
2022-07-29T18:39:43.028Z,20.40
2022-07-29T18:42:31.771Z,20.40
2022-07-29T18:45:20.611Z,20.40
2022-07-29T18:48:12.784Z,20.40
2022-07-29T18:51:02.519Z,20.40
2022-07-29T18:53:58.240Z,20.40
2022-07-29T18:56:48.571Z,20.40
2022-07-29T18:59:37.254Z,20.40
2022-07-29T19:02:26.189Z,20.40
2022-07-29T19:05:15.139Z,20.40
2022-07-29T19:08:03.824Z,20.40
2022-07-29T19:10:52.540Z,20.40
2022-07-29T19:13:42.785Z,20.40
2022-07-29T19:16:31.492Z,20.40
2022-07-29T19:19:20.153Z,20.30
2022-07-29T19:22:09.259Z,20.20
2022-07-29T19:24:58.001Z,20.20
2022-07-29T19:27:47.940Z,20.10
2022-07-29T19:30:38.056Z,20.10
2022-07-29T19:33:26.822Z,20.00
2022-07-29T19:36:15.585Z,20.00
2022-07-29T19:39:04.444Z,19.90
2022-07-29T19:41:56.451Z,19.90
2022-07-29T19:44:46.051Z,19.80
2022-07-29T19:47:36.192Z,19.70
2022-07-29T19:50:25.771Z,19.80
2022-07-29T19:53:14.452Z,19.80
2022-07-29T19:56:03.195Z,19.70
2022-07-29T19:58:52.053Z,19.70
2022-07-29T20:01:41.627Z,19.80
2022-07-29T20:04:31.851Z,19.80
2022-07-29T20:07:21.982Z,19.80
2022-07-29T20:10:11.923Z,19.80
2022-07-29T20:13:00.609Z,19.90
2022-07-29T20:15:49.588Z,19.80
2022-07-29T20:18:38.380Z,19.70
2022-07-29T20:21:28.882Z,19.60
2022-07-29T20:24:17.524Z,19.50
2022-07-29T20:27:06.258Z,19.50
2022-07-29T20:30:02.464Z,19.50
2022-07-29T20:32:51.329Z,19.40
2022-07-29T20:35:41.070Z,19.40
2022-07-29T20:38:31.248Z,19.50
2022-07-29T20:41:19.999Z,19.50
2022-07-29T20:44:08.699Z,19.40
2022-07-29T20:46:57.900Z,19.30
2022-07-29T20:49:46.832Z,19.20
2022-07-29T20:52:35.517Z,19.10
2022-07-29T20:55:26.045Z,19.10
2022-07-29T20:58:14.774Z,19.20
2022-07-29T21:01:04.323Z,19.20
2022-07-29T21:03:53.066Z,19.20
2022-07-29T21:06:41.756Z,19.20
2022-07-29T21:09:30.629Z,19.00
2022-07-29T21:12:20.852Z,19.00
2022-07-29T21:15:13.621Z,19.00
2022-07-29T21:18:05.167Z,18.90
2022-07-29T21:20:53.984Z,18.80
2022-07-29T21:23:43.335Z,18.70
2022-07-29T21:26:32.005Z,18.70
2022-07-29T21:29:21.016Z,18.70
2022-07-29T21:32:09.956Z,18.60
2022-07-29T21:34:58.729Z,18.60
2022-07-29T21:37:47.387Z,18.50
2022-07-29T21:40:36.118Z,18.40
2022-07-29T21:43:26.795Z,18.30
2022-07-29T21:46:18.219Z,18.20
2022-07-29T21:49:07.001Z,18.20
2022-07-29T21:51:55.715Z,18.10
2022-07-29T21:54:45.405Z,18.10
2022-07-29T21:57:34.563Z,18.00
2022-07-29T22:00:25.638Z,17.90
2022-07-29T22:03:16.047Z,17.80
2022-07-29T22:06:04.857Z,17.80
2022-07-29T22:08:53.546Z,17.80
2022-07-29T22:11:42.601Z,17.80
2022-07-29T22:14:31.240Z,17.80
2022-07-29T22:17:20.593Z,17.80
2022-07-29T22:20:11.823Z,17.80
2022-07-29T22:23:00.709Z,17.80
2022-07-29T22:25:49.481Z,17.80
2022-07-29T22:28:38.232Z,17.80
2022-07-29T22:31:29.312Z,17.70
2022-07-29T22:34:18.044Z,17.60
2022-07-29T22:37:08.889Z,17.60
2022-07-29T22:39:57.765Z,17.50
2022-07-29T22:42:46.456Z,17.40
2022-07-29T22:45:35.128Z,17.40
2022-07-29T22:48:23.857Z,17.40
2022-07-29T22:51:12.583Z,17.30
2022-07-29T22:54:02.864Z,17.30
2022-07-29T22:56:51.590Z,17.30
2022-07-29T22:59:40.265Z,17.30
2022-07-29T23:02:29.188Z,17.30
2022-07-29T23:05:17.926Z,17.30
2022-07-29T23:08:06.814Z,17.30
2022-07-29T23:10:56.936Z,17.30
2022-07-29T23:13:45.626Z,17.30
2022-07-29T23:16:34.453Z,17.30
2022-07-29T23:19:23.241Z,17.30
2022-07-29T23:22:11.951Z,17.20
2022-07-29T23:25:00.601Z,17.10
2022-07-29T23:27:50.744Z,17.00
2022-07-29T23:30:39.452Z,16.90
2022-07-29T23:33:28.122Z,16.80
2022-07-29T23:36:16.912Z,16.70
2022-07-29T23:39:06.139Z,16.70
2022-07-29T23:41:54.854Z,16.70
2022-07-29T23:44:45.072Z,16.60
2022-07-29T23:47:33.801Z,16.60
2022-07-29T23:50:22.485Z,16.60
2022-07-29T23:53:12.214Z,16.60
2022-07-29T23:56:00.986Z,16.60
2022-07-29T23:58:49.692Z,16.50
